createdAt,value
2022-11-02T00:01:51.247Z,30.95
2022-11-02T00:04:41.373Z,29.88
2022-11-02T00:07:30.217Z,29.20
2022-11-02T00:10:19.475Z,29.83
2022-11-02T00:13:08.312Z,29.40
2022-11-02T00:15:57.625Z,29.58
2022-11-02T00:18:49.301Z,30.30
2022-11-02T00:21:39.903Z,29.48
2022-11-02T00:24:28.677Z,30.70
2022-11-02T00:27:17.552Z,30.02
2022-11-02T00:30:07.382Z,30.50
2022-11-02T00:32:57.195Z,30.30
2022-11-02T00:35:46.377Z,31.52
2022-11-02T00:38:36.818Z,31.08
2022-11-02T00:41:25.700Z,31.67
2022-11-02T00:44:14.477Z,31.15
2022-11-02T00:47:03.316Z,30.30
2022-11-02T00:49:52.018Z,32.50
2022-11-02T00:52:41.052Z,32.00
2022-11-02T00:55:31.270Z,33.10
2022-11-02T00:58:24.465Z,32.28
2022-11-02T01:01:13.793Z,32.80
2022-11-02T01:04:02.621Z,34.28
2022-11-02T01:06:52.095Z,33.72
2022-11-02T01:09:40.800Z,33.83
2022-11-02T01:12:30.990Z,32.70
2022-11-02T01:15:19.993Z,33.38
2022-11-02T01:18:09.271Z,32.47
2022-11-02T01:20:58.059Z,34.80
2022-11-02T01:23:46.686Z,34.25
2022-11-02T01:26:35.437Z,33.45
2022-11-02T01:29:26.078Z,35.17
2022-11-02T01:32:14.951Z,34.17
2022-11-02T01:35:04.003Z,36.05
2022-11-02T01:37:53.046Z,36.20
2022-11-02T01:40:41.887Z,36.53
2022-11-02T01:43:32.730Z,36.53
2022-11-02T01:46:26.089Z,36.80
2022-11-02T01:49:19.305Z,36.58
2022-11-02T01:52:11.026Z,36.53
2022-11-02T01:55:03.802Z,36.78
2022-11-02T01:57:57.901Z,38.20
2022-11-02T02:00:46.875Z,36.85
2022-11-02T02:03:39.085Z,35.58
2022-11-02T02:06:31.330Z,35.60
2022-11-02T02:09:22.004Z,37.03
2022-11-02T02:12:10.822Z,37.20
2022-11-02T02:15:01.001Z,37.50
2022-11-02T02:17:57.284Z,36.20
2022-11-02T02:21:14.008Z,36.90
2022-11-02T02:24:36.331Z,37.92
2022-11-02T02:27:31.372Z,37.25
2022-11-02T02:30:21.972Z,39.55
2022-11-02T02:33:14.270Z,39.40
2022-11-02T02:36:09.059Z,39.70
2022-11-02T02:39:02.535Z,40.53
2022-11-02T02:41:58.532Z,41.53
2022-11-02T02:44:55.427Z,42.25
2022-11-02T02:47:51.969Z,42.47
2022-11-02T02:50:46.351Z,42.95
2022-11-02T02:53:42.362Z,42.38
2022-11-02T02:56:35.732Z,42.67
2022-11-02T02:59:28.723Z,44.40
2022-11-02T03:02:23.698Z,46.03
2022-11-02T03:05:29.126Z,48.08
2022-11-02T03:08:18.385Z,45.08
2022-11-02T03:11:15.061Z,48.92
2022-11-02T03:14:15.275Z,48.28
2022-11-02T03:17:14.606Z,49.67
2022-11-02T03:20:10.907Z,48.92
2022-11-02T03:23:12.042Z,49.50
2022-11-02T03:26:04.915Z,49.22
2022-11-02T03:29:02.468Z,52.45
2022-11-02T03:31:58.119Z,51.47
2022-11-02T03:34:49.941Z,50.17
2022-11-02T03:37:47.009Z,52.85
2022-11-02T03:40:43.245Z,49.70
2022-11-02T03:43:34.545Z,50.10
2022-11-02T03:46:25.492Z,51.60
2022-11-02T03:49:19.936Z,51.53
2022-11-02T03:52:14.097Z,51.80
2022-11-02T03:55:08.963Z,52.03
2022-11-02T03:58:00.898Z,52.30
2022-11-02T04:00:55.889Z,51.30
2022-11-02T04:03:47.246Z,52.45
2022-11-02T04:06:36.656Z,52.33
2022-11-02T04:09:25.900Z,56.75
2022-11-02T04:12:32.052Z,55.70
2022-11-02T04:15:22.343Z,54.00
2022-11-02T04:18:28.465Z,55.10
2022-11-02T04:21:17.254Z,55.75
2022-11-02T04:24:24.331Z,56.28
2022-11-02T04:27:16.744Z,58.53
2022-11-02T04:30:09.753Z,58.38
2022-11-02T04:33:29.179Z,62.03
2022-11-02T04:36:24.854Z,60.28
2022-11-02T04:39:16.582Z,60.10
2022-11-02T04:42:05.621Z,61.35
2022-11-02T04:44:59.547Z,61.78
2022-11-02T04:47:49.579Z,63.10
2022-11-02T04:50:39.740Z,60.97
2022-11-02T04:53:30.416Z,62.25
2022-11-02T04:56:20.104Z,62.17
2022-11-02T04:59:09.816Z,63.42
2022-11-02T05:01:59.579Z,63.30
2022-11-02T05:04:48.478Z,63.28
2022-11-02T05:07:39.310Z,60.78
2022-11-02T05:10:28.193Z,62.53
2022-11-02T05:13:18.310Z,64.30
2022-11-02T05:16:08.407Z,63.60
2022-11-02T05:18:57.348Z,62.13
2022-11-02T05:21:46.869Z,62.33
2022-11-02T05:24:37.424Z,60.78
2022-11-02T05:27:27.094Z,62.75
2022-11-02T05:30:16.277Z,59.33
2022-11-02T05:33:06.395Z,62.00
2022-11-02T05:35:56.486Z,59.35
2022-11-02T05:38:45.287Z,60.75
2022-11-02T05:41:36.642Z,61.78
2022-11-02T05:44:27.082Z,60.85
2022-11-02T05:47:15.784Z,61.20
2022-11-02T05:50:04.741Z,60.88
2022-11-02T05:52:53.452Z,57.92
2022-11-02T05:55:42.253Z,60.95
2022-11-02T05:58:32.369Z,62.38
2022-11-02T06:01:21.387Z,59.25
2022-11-02T06:04:10.447Z,62.17
2022-11-02T06:06:59.235Z,58.65
2022-11-02T06:09:47.917Z,59.67
2022-11-02T06:12:36.617Z,59.80
2022-11-02T06:15:27.026Z,58.55
2022-11-02T06:18:15.729Z,56.22
2022-11-02T06:21:05.135Z,57.35
2022-11-02T06:23:53.855Z,58.10
2022-11-02T06:26:43.057Z,56.95
2022-11-02T06:29:31.839Z,54.83
2022-11-02T06:32:22.393Z,54.85
2022-11-02T06:35:12.340Z,52.97
2022-11-02T06:38:01.167Z,55.03
2022-11-02T06:40:57.440Z,53.88
2022-11-02T06:43:46.189Z,51.08
2022-11-02T06:46:35.052Z,52.45
2022-11-02T06:49:26.675Z,49.25
2022-11-02T06:52:15.435Z,48.50
2022-11-02T06:55:04.365Z,45.15
2022-11-02T06:57:53.207Z,43.28
2022-11-02T07:00:41.855Z,42.17
2022-11-02T07:03:31.145Z,41.60
2022-11-02T07:06:21.249Z,40.90
2022-11-02T07:09:10.145Z,40.70
2022-11-02T07:11:58.822Z,41.63
2022-11-02T07:14:47.619Z,40.60
2022-11-02T07:17:39.956Z,36.97
2022-11-02T07:20:30.396Z,33.53
2022-11-02T07:23:23.822Z,33.75
2022-11-02T07:26:12.687Z,33.58
2022-11-02T07:29:01.382Z,32.13
2022-11-02T07:31:50.117Z,31.10
2022-11-02T07:34:38.737Z,29.30
2022-11-02T07:37:27.611Z,29.38
2022-11-02T07:40:17.694Z,31.85
2022-11-02T07:43:07.520Z,29.90
2022-11-02T07:46:08.236Z,28.85
2022-11-02T07:48:57.239Z,29.42
2022-11-02T07:51:46.293Z,29.45
2022-11-02T07:54:35.043Z,28.90
2022-11-02T07:57:25.214Z,27.90
2022-11-02T08:00:14.430Z,26.98
2022-11-02T08:03:04.599Z,30.08
2022-11-02T08:05:53.948Z,29.20
2022-11-02T08:08:42.820Z,29.77
2022-11-02T08:11:31.726Z,30.85
2022-11-02T08:14:21.735Z,31.55
2022-11-02T08:17:10.516Z,31.90
2022-11-02T08:19:59.246Z,31.95
2022-11-02T08:22:47.822Z,31.17
2022-11-02T08:25:36.999Z,30.92
2022-11-02T08:28:28.149Z,31.30
2022-11-02T08:31:19.077Z,33.05
2022-11-02T08:34:07.737Z,31.35
2022-11-02T08:36:56.523Z,30.83
2022-11-02T08:39:45.553Z,29.73
2022-11-02T08:42:34.300Z,30.17
2022-11-02T08:45:22.962Z,31.42
2022-11-02T08:48:13.520Z,33.17
2022-11-02T08:51:02.889Z,34.42
2022-11-02T08:53:52.138Z,34.47
2022-11-02T08:56:40.997Z,34.88
2022-11-02T08:59:29.692Z,33.95
2022-11-02T09:02:18.904Z,33.97
2022-11-02T09:05:09.994Z,36.63
2022-11-02T09:08:00.392Z,35.13
2022-11-02T09:10:52.115Z,36.40
2022-11-02T09:13:41.036Z,34.97
2022-11-02T09:16:30.049Z,33.85
2022-11-02T09:19:18.677Z,33.05
2022-11-02T09:22:08.652Z,31.67
2022-11-02T09:24:57.500Z,31.85
2022-11-02T09:27:49.421Z,33.40
2022-11-02T09:30:41.718Z,33.17
2022-11-02T09:33:30.556Z,34.78
2022-11-02T09:36:19.577Z,31.75
2022-11-02T09:39:10.359Z,31.92
2022-11-02T09:42:08.711Z,32.20
2022-11-02T09:45:01.104Z,32.53
2022-11-02T09:51:13.077Z,31.67
2022-11-02T09:54:17.145Z,30.77
2022-11-02T09:57:11.898Z,30.67
2022-11-02T10:00:01.227Z,29.00
2022-11-02T10:02:59.091Z,29.73
2022-11-02T10:05:57.338Z,28.13
2022-11-02T10:08:52.554Z,28.20
2022-11-02T10:11:51.158Z,27.98
2022-11-02T10:14:46.408Z,28.90
2022-11-02T10:17:38.952Z,28.00
2022-11-02T10:20:29.763Z,28.40
2022-11-02T10:23:26.439Z,27.35
2022-11-02T10:26:23.706Z,27.50
2022-11-02T10:29:19.939Z,27.40
2022-11-02T10:32:12.035Z,27.48
2022-11-02T10:35:17.855Z,27.27
2022-11-02T10:38:22.447Z,27.17
2022-11-02T10:41:31.460Z,25.73
2022-11-02T10:44:42.613Z,26.58
2022-11-02T10:47:35.538Z,26.58
2022-11-02T10:50:47.599Z,25.60
2022-11-02T10:53:42.113Z,25.55
2022-11-02T10:56:32.849Z,26.70
2022-11-02T10:59:23.912Z,26.40
2022-11-02T11:02:16.053Z,27.25
2022-11-02T11:05:14.981Z,26.27
2022-11-02T11:08:05.586Z,25.98
2022-11-02T11:10:54.536Z,25.38
2022-11-02T11:16:55.100Z,24.67
2022-11-02T11:19:50.972Z,25.13
2022-11-02T11:22:42.077Z,23.33
2022-11-02T11:25:34.850Z,23.17
2022-11-02T11:28:44.386Z,23.60
2022-11-02T11:31:33.206Z,22.13
2022-11-02T11:34:27.464Z,21.98
2022-11-02T11:37:18.187Z,22.42
2022-11-02T11:40:32.425Z,22.42
2022-11-02T11:43:39.671Z,21.90
2022-11-02T11:59:02.695Z,20.48
2022-11-02T12:01:54.730Z,20.60
2022-11-02T12:04:45.454Z,20.48
2022-11-02T12:08:01.708Z,20.98
2022-11-02T12:11:19.395Z,18.95
2022-11-02T12:14:22.654Z,20.58
2022-11-02T12:17:26.158Z,20.20
2022-11-02T12:20:31.105Z,19.58
2022-11-02T12:23:44.317Z,19.88
2022-11-02T12:26:45.881Z,20.25
2022-11-02T12:30:04.109Z,19.75
2022-11-02T12:33:10.650Z,20.02
2022-11-02T12:36:13.537Z,20.02
2022-11-02T12:39:09.274Z,18.55
2022-11-02T12:42:17.943Z,18.35
2022-11-02T12:45:26.487Z,18.45
2022-11-02T12:48:25.451Z,19.05
2022-11-02T12:51:26.125Z,17.73
2022-11-02T12:54:21.605Z,17.75
2022-11-02T12:57:21.889Z,17.50
2022-11-02T13:00:20.208Z,16.92
2022-11-02T13:03:22.069Z,15.82
2022-11-02T13:06:15.032Z,16.23
2022-11-02T13:09:08.878Z,15.32
2022-11-02T13:12:03.361Z,16.65
2022-11-02T13:14:56.035Z,15.73
2022-11-02T13:17:48.067Z,16.75
2022-11-02T13:20:43.944Z,16.92
2022-11-02T13:23:37.587Z,17.23
2022-11-02T13:26:30.423Z,16.90
2022-11-02T13:29:23.007Z,16.55
2022-11-02T13:32:20.925Z,17.77
2022-11-02T13:35:18.542Z,17.60
2022-11-02T13:38:17.495Z,17.15
2022-11-02T13:41:32.227Z,18.08
2022-11-02T13:44:34.656Z,18.45
2022-11-02T13:47:43.121Z,17.98
2022-11-02T13:50:34.107Z,18.30
2022-11-02T13:53:28.140Z,16.88
2022-11-02T13:56:24.600Z,17.27
2022-11-02T13:59:22.614Z,18.00
2022-11-02T14:02:18.257Z,19.17
2022-11-02T14:05:09.528Z,19.73
2022-11-02T14:08:02.372Z,19.00
2022-11-02T14:11:05.659Z,18.35
2022-11-02T14:14:16.372Z,18.88
2022-11-02T14:17:13.713Z,18.67
2022-11-02T14:20:04.910Z,19.63
2022-11-02T14:23:26.926Z,20.10
2022-11-02T14:26:55.715Z,21.55
2022-11-02T14:29:52.670Z,21.42
2022-11-02T14:32:56.519Z,21.25
2022-11-02T14:35:54.501Z,22.50
2022-11-02T14:39:10.357Z,22.08
2022-11-02T14:42:32.902Z,22.23
2022-11-02T14:45:31.288Z,22.77
2022-11-02T14:48:20.022Z,23.23
2022-11-02T14:51:17.394Z,22.85
2022-11-02T14:54:14.605Z,23.67
2022-11-02T14:57:07.496Z,24.88
2022-11-02T14:59:58.408Z,26.02
2022-11-02T15:02:47.757Z,25.08
2022-11-02T15:05:39.306Z,24.90
2022-11-02T15:08:31.553Z,25.73
2022-11-02T15:11:49.596Z,24.63
2022-11-02T15:14:57.485Z,25.15
2022-11-02T15:18:22.741Z,26.27
2022-11-02T15:21:28.333Z,25.70
2022-11-02T15:24:26.879Z,25.48
2022-11-02T15:27:15.540Z,26.30
2022-11-02T15:30:07.656Z,26.27
2022-11-02T15:33:01.979Z,26.45
2022-11-02T15:35:54.641Z,26.45
2022-11-02T15:38:49.449Z,26.70
2022-11-02T15:41:41.338Z,27.30
2022-11-02T15:45:05.427Z,27.25
2022-11-02T15:48:17.437Z,26.38
2022-11-02T15:51:15.493Z,27.63
2022-11-02T15:54:24.829Z,27.35
2022-11-02T15:57:21.721Z,27.02
2022-11-02T16:00:15.919Z,26.88
2022-11-02T16:03:07.603Z,27.35
2022-11-02T16:06:05.937Z,27.65
2022-11-02T16:08:56.197Z,26.83
2022-11-02T16:11:44.780Z,27.20
2022-11-02T16:14:33.498Z,26.90
2022-11-02T16:17:23.531Z,26.52
2022-11-02T16:20:22.500Z,28.38
2022-11-02T16:23:21.451Z,28.88
2022-11-02T16:26:19.801Z,29.48
2022-11-02T16:29:09.846Z,29.63
2022-11-02T16:31:59.048Z,29.38
2022-11-02T16:34:47.791Z,30.25
2022-11-02T16:37:38.059Z,31.40
2022-11-02T16:40:26.729Z,28.30
2022-11-02T16:43:15.992Z,29.25
2022-11-02T16:46:07.487Z,29.02
2022-11-02T16:49:08.608Z,28.80
2022-11-02T16:51:59.464Z,29.10
2022-11-02T16:54:49.800Z,29.88
2022-11-02T16:57:46.864Z,28.17
2022-11-02T17:00:35.729Z,28.80
2022-11-02T17:03:27.835Z,29.73
2022-11-02T17:06:17.253Z,28.80
2022-11-02T17:09:05.905Z,28.00
2022-11-02T17:11:59.322Z,27.98
2022-11-02T17:14:49.467Z,28.10
2022-11-02T17:17:41.108Z,27.73
2022-11-02T17:20:30.376Z,26.48
2022-11-02T17:23:33.217Z,26.50
2022-11-02T17:26:37.559Z,26.80
2022-11-02T17:29:33.468Z,24.08
2022-11-02T17:32:23.353Z,25.80
2022-11-02T17:35:17.030Z,24.20
2022-11-02T17:38:05.892Z,23.45
2022-11-02T17:40:55.677Z,23.48
2022-11-02T17:43:43.639Z,22.73
2022-11-02T17:46:34.360Z,21.42
2022-11-02T17:49:22.960Z,21.23
2022-11-02T17:52:13.917Z,19.75
2022-11-02T17:55:02.486Z,18.70
2022-11-02T17:57:51.263Z,17.88
2022-11-02T18:00:39.982Z,16.92
2022-11-02T18:03:31.545Z,16.40
2022-11-02T18:06:20.292Z,15.05
2022-11-02T18:09:19.360Z,14.50
2022-11-02T18:12:10.412Z,14.77
2022-11-02T18:14:59.167Z,14.15
2022-11-02T18:17:48.023Z,12.20
2022-11-02T18:20:41.892Z,12.90
2022-11-02T18:23:33.222Z,11.90
2022-11-02T18:26:21.941Z,12.32
2022-11-02T18:29:10.598Z,10.48
2022-11-02T18:31:59.145Z,10.43
2022-11-02T18:34:47.792Z,8.90
2022-11-02T18:37:39.024Z,9.55
2022-11-02T18:40:32.740Z,9.43
2022-11-02T18:43:24.224Z,9.07
2022-11-02T18:46:12.876Z,9.35
2022-11-02T18:49:01.720Z,8.40
2022-11-02T18:51:50.508Z,8.68
2022-11-02T18:54:40.884Z,8.85
2022-11-02T18:57:29.566Z,8.57
2022-11-02T19:00:18.564Z,9.18
2022-11-02T19:03:07.652Z,8.43
2022-11-02T19:06:15.706Z,8.13
2022-11-02T19:09:20.466Z,7.72
2022-11-02T19:12:14.969Z,7.93
2022-11-02T19:15:03.733Z,8.85
2022-11-02T19:17:52.551Z,8.55
2022-11-02T19:20:42.906Z,8.60
2022-11-02T19:23:31.657Z,7.88
2022-11-02T19:26:20.368Z,8.77
2022-11-02T19:29:10.785Z,9.00
2022-11-02T19:31:59.449Z,9.45
2022-11-02T19:34:48.412Z,9.27
2022-11-02T19:37:37.292Z,9.60
2022-11-02T19:40:30.554Z,9.88
2022-11-02T19:43:21.368Z,9.68
2022-11-02T19:46:15.082Z,10.13
2022-11-02T19:49:04.032Z,10.02
2022-11-02T19:51:55.081Z,10.50
2022-11-02T19:54:44.276Z,10.70
2022-11-02T19:57:33.573Z,12.15
2022-11-02T20:00:26.728Z,10.23
2022-11-02T20:03:17.625Z,10.65
2022-11-02T20:06:08.870Z,10.80
2022-11-02T20:09:01.795Z,10.25
2022-11-02T20:11:52.956Z,11.02
2022-11-02T20:14:42.458Z,10.13
2022-11-02T20:17:46.540Z,10.30
2022-11-02T20:20:46.083Z,11.00
2022-11-02T20:23:36.160Z,11.70
2022-11-02T20:26:27.790Z,11.13
2022-11-02T20:29:18.487Z,11.63
2022-11-02T20:32:10.623Z,10.40
2022-11-02T20:35:07.397Z,11.05
2022-11-02T20:38:04.602Z,11.13
2022-11-02T20:40:54.965Z,11.00
2022-11-02T20:43:45.831Z,12.13
2022-11-02T20:46:38.213Z,11.77
2022-11-02T20:52:41.775Z,11.15
2022-11-02T20:55:32.838Z,11.65
2022-11-02T20:58:26.934Z,11.98
2022-11-02T21:01:17.859Z,11.32
2022-11-02T21:04:07.694Z,12.48
2022-11-02T21:06:57.472Z,11.38
2022-11-02T21:09:47.381Z,12.15
2022-11-02T21:12:56.095Z,10.45
2022-11-02T21:15:45.762Z,10.73
2022-11-02T21:18:35.532Z,11.13
2022-11-02T21:21:25.374Z,11.10
2022-11-02T21:24:15.078Z,11.32
2022-11-02T21:27:07.229Z,11.60
2022-11-02T21:30:00.909Z,11.13
2022-11-02T21:32:52.659Z,11.02
2022-11-02T21:35:42.309Z,11.65
2022-11-02T21:38:31.166Z,11.80
2022-11-02T21:41:21.647Z,10.63
2022-11-02T21:44:11.737Z,11.32
2022-11-02T21:47:01.905Z,11.63
2022-11-02T21:49:50.762Z,11.55
2022-11-02T21:52:42.465Z,12.32
2022-11-02T21:55:33.729Z,11.48
2022-11-02T21:58:22.345Z,11.93
2022-11-02T22:01:32.455Z,11.93
2022-11-02T22:04:28.371Z,12.45
2022-11-02T22:07:17.230Z,11.88
2022-11-02T22:10:06.393Z,11.25
2022-11-02T22:13:12.604Z,11.60
2022-11-02T22:16:08.890Z,11.52
2022-11-02T22:18:58.845Z,10.90
2022-11-02T22:21:49.573Z,11.00
2022-11-02T22:24:43.547Z,10.32
2022-11-02T22:27:33.423Z,11.50
2022-11-02T22:30:22.423Z,11.40
2022-11-02T22:33:12.586Z,12.80
2022-11-02T22:36:01.650Z,11.02
2022-11-02T22:38:55.015Z,10.77
2022-11-02T22:41:45.316Z,11.07
2022-11-02T22:44:33.895Z,10.88
2022-11-02T22:47:22.519Z,11.43
2022-11-02T22:50:11.194Z,11.73
2022-11-02T22:52:59.850Z,12.05
2022-11-02T22:55:58.059Z,11.00
2022-11-02T22:58:48.811Z,11.05
2022-11-02T23:01:38.810Z,10.07
2022-11-02T23:04:27.540Z,10.70
2022-11-02T23:07:16.256Z,9.55
2022-11-02T23:10:25.603Z,8.63
2022-11-02T23:13:15.649Z,9.85
2022-11-02T23:16:19.500Z,8.88
2022-11-02T23:19:30.935Z,8.50
2022-11-02T23:22:42.653Z,8.77
2022-11-02T23:25:31.168Z,8.38
2022-11-02T23:28:38.743Z,8.75
2022-11-02T23:31:44.855Z,8.15
2022-11-02T23:34:33.508Z,8.10
2022-11-02T23:37:21.048Z,8.10
2022-11-02T23:40:11.958Z,8.15
2022-11-02T23:43:00.563Z,7.28
2022-11-02T23:45:50.517Z,7.50
2022-11-02T23:48:39.163Z,6.82
2022-11-02T23:51:45.400Z,7.18
2022-11-02T23:54:51.158Z,7.63
2022-11-02T23:57:39.943Z,7.03
